sensor_id;sensor_type;location;lat;lon;timestamp;P1;durP1;ratioP1;P2;durP2;ratioP2
27505;SDS011;14939;43.596;1.320;2024-03-25T00:02:07;9.90;;;6.22;;
27505;SDS011;14939;43.596;1.320;2024-03-25T00:04:32;11.98;;;7.28;;
27505;SDS011;14939;43.596;1.320;2024-03-25T00:06:58;14.15;;;7.50;;
27505;SDS011;14939;43.596;1.320;2024-03-25T00:09:24;15.18;;;8.05;;
27505;SDS011;14939;43.596;1.320;2024-03-25T00:11:50;12.45;;;7.22;;
27505;SDS011;14939;43.596;1.320;2024-03-25T00:14:19;15.40;;;8.00;;
27505;SDS011;14939;43.596;1.320;2024-03-25T00:16:45;15.52;;;8.25;;
27505;SDS011;14939;43.596;1.320;2024-03-25T00:19:11;15.00;;;7.78;;
27505;SDS011;14939;43.596;1.320;2024-03-25T00:21:37;15.23;;;8.15;;
27505;SDS011;14939;43.596;1.320;2024-03-25T00:24:03;14.65;;;7.57;;
27505;SDS011;14939;43.596;1.320;2024-03-25T00:26:29;14.15;;;7.95;;
27505;SDS011;14939;43.596;1.320;2024-03-25T00:28:54;14.63;;;7.88;;
27505;SDS011;14939;43.596;1.320;2024-03-25T00:31:20;16.88;;;8.40;;
27505;SDS011;14939;43.596;1.320;2024-03-25T00:33:46;16.02;;;8.13;;
27505;SDS011;14939;43.596;1.320;2024-03-25T00:36:12;12.50;;;8.10;;
27505;SDS011;14939;43.596;1.320;2024-03-25T00:38:37;17.23;;;8.85;;
27505;SDS011;14939;43.596;1.320;2024-03-25T00:41:03;16.38;;;8.57;;
27505;SDS011;14939;43.596;1.320;2024-03-25T00:43:29;15.07;;;8.60;;
27505;SDS011;14939;43.596;1.320;2024-03-25T00:45:54;14.88;;;8.02;;
27505;SDS011;14939;43.596;1.320;2024-03-25T00:48:21;13.80;;;8.55;;
27505;SDS011;14939;43.596;1.320;2024-03-25T00:50:47;12.63;;;8.30;;
27505;SDS011;14939;43.596;1.320;2024-03-25T00:53:13;13.88;;;8.98;;
27505;SDS011;14939;43.596;1.320;2024-03-25T00:55:39;14.30;;;8.00;;
27505;SDS011;14939;43.596;1.320;2024-03-25T00:58:05;11.63;;;8.18;;
27505;SDS011;14939;43.596;1.320;2024-03-25T01:00:31;13.50;;;7.88;;
27505;SDS011;14939;43.596;1.320;2024-03-25T01:02:56;13.95;;;8.55;;
27505;SDS011;14939;43.596;1.320;2024-03-25T01:05:22;16.25;;;9.70;;
27505;SDS011;14939;43.596;1.320;2024-03-25T01:07:48;21.50;;;11.05;;
27505;SDS011;14939;43.596;1.320;2024-03-25T01:10:14;17.67;;;10.52;;
27505;SDS011;14939;43.596;1.320;2024-03-25T01:12:42;21.08;;;11.38;;
27505;SDS011;14939;43.596;1.320;2024-03-25T01:15:08;14.98;;;10.50;;
27505;SDS011;14939;43.596;1.320;2024-03-25T01:17:37;15.88;;;10.35;;
27505;SDS011;14939;43.596;1.320;2024-03-25T01:20:02;16.25;;;10.50;;
27505;SDS011;14939;43.596;1.320;2024-03-25T01:22:32;19.35;;;11.15;;
27505;SDS011;14939;43.596;1.320;2024-03-25T01:24:58;19.55;;;10.85;;
27505;SDS011;14939;43.596;1.320;2024-03-25T01:27:24;20.25;;;10.65;;
27505;SDS011;14939;43.596;1.320;2024-03-25T01:29:49;17.83;;;10.00;;
27505;SDS011;14939;43.596;1.320;2024-03-25T01:32:15;15.63;;;10.20;;
27505;SDS011;14939;43.596;1.320;2024-03-25T01:34:41;16.10;;;9.13;;
27505;SDS011;14939;43.596;1.320;2024-03-25T01:37:06;14.27;;;9.05;;
27505;SDS011;14939;43.596;1.320;2024-03-25T01:39:32;16.50;;;8.73;;
27505;SDS011;14939;43.596;1.320;2024-03-25T01:41:58;17.77;;;8.75;;
27505;SDS011;14939;43.596;1.320;2024-03-25T01:44:24;17.73;;;9.40;;
27505;SDS011;14939;43.596;1.320;2024-03-25T01:46:49;15.65;;;9.32;;
27505;SDS011;14939;43.596;1.320;2024-03-25T01:49:17;16.92;;;8.98;;
27505;SDS011;14939;43.596;1.320;2024-03-25T01:51:43;16.35;;;9.48;;
27505;SDS011;14939;43.596;1.320;2024-03-25T01:54:09;16.85;;;10.07;;
27505;SDS011;14939;43.596;1.320;2024-03-25T01:56:35;17.15;;;10.23;;
27505;SDS011;14939;43.596;1.320;2024-03-25T01:59:03;17.13;;;9.35;;
27505;SDS011;14939;43.596;1.320;2024-03-25T02:01:29;16.08;;;9.10;;
27505;SDS011;14939;43.596;1.320;2024-03-25T02:03:55;14.95;;;8.90;;
27505;SDS011;14939;43.596;1.320;2024-03-25T02:06:22;14.55;;;8.35;;
27505;SDS011;14939;43.596;1.320;2024-03-25T02:08:51;13.05;;;8.52;;
27505;SDS011;14939;43.596;1.320;2024-03-25T02:11:18;18.85;;;10.40;;
27505;SDS011;14939;43.596;1.320;2024-03-25T02:13:44;22.08;;;13.43;;
27505;SDS011;14939;43.596;1.320;2024-03-25T02:16:10;28.20;;;17.77;;
27505;SDS011;14939;43.596;1.320;2024-03-25T02:18:36;36.55;;;21.88;;
27505;SDS011;14939;43.596;1.320;2024-03-25T02:21:01;34.67;;;20.23;;
27505;SDS011;14939;43.596;1.320;2024-03-25T02:23:27;31.92;;;19.63;;
27505;SDS011;14939;43.596;1.320;2024-03-25T02:25:53;27.10;;;17.30;;
27505;SDS011;14939;43.596;1.320;2024-03-25T02:28:19;26.55;;;14.25;;
27505;SDS011;14939;43.596;1.320;2024-03-25T02:30:45;21.52;;;12.63;;
27505;SDS011;14939;43.596;1.320;2024-03-25T02:33:10;17.92;;;10.95;;
27505;SDS011;14939;43.596;1.320;2024-03-25T02:35:36;18.75;;;10.20;;
27505;SDS011;14939;43.596;1.320;2024-03-25T02:38:04;15.50;;;9.57;;
27505;SDS011;14939;43.596;1.320;2024-03-25T02:40:31;16.60;;;9.57;;
27505;SDS011;14939;43.596;1.320;2024-03-25T02:42:57;13.15;;;8.45;;
27505;SDS011;14939;43.596;1.320;2024-03-25T02:45:23;20.13;;;8.75;;
27505;SDS011;14939;43.596;1.320;2024-03-25T02:47:49;14.15;;;8.18;;
27505;SDS011;14939;43.596;1.320;2024-03-25T02:50:15;21.13;;;9.35;;
27505;SDS011;14939;43.596;1.320;2024-03-25T02:52:41;17.70;;;8.63;;
27505;SDS011;14939;43.596;1.320;2024-03-25T02:55:07;17.88;;;9.38;;
27505;SDS011;14939;43.596;1.320;2024-03-25T02:57:33;17.17;;;9.10;;
27505;SDS011;14939;43.596;1.320;2024-03-25T02:59:58;16.50;;;9.02;;
27505;SDS011;14939;43.596;1.320;2024-03-25T03:02:24;17.15;;;8.20;;
27505;SDS011;14939;43.596;1.320;2024-03-25T03:04:50;14.55;;;8.05;;
27505;SDS011;14939;43.596;1.320;2024-03-25T03:07:15;13.82;;;6.20;;
27505;SDS011;14939;43.596;1.320;2024-03-25T03:09:42;13.15;;;6.18;;
27505;SDS011;14939;43.596;1.320;2024-03-25T03:12:08;13.65;;;6.30;;
27505;SDS011;14939;43.596;1.320;2024-03-25T03:14:33;9.57;;;5.97;;
27505;SDS011;14939;43.596;1.320;2024-03-25T03:16:59;13.48;;;5.93;;
27505;SDS011;14939;43.596;1.320;2024-03-25T03:19:29;12.15;;;5.82;;
27505;SDS011;14939;43.596;1.320;2024-03-25T03:21:55;12.32;;;5.53;;
27505;SDS011;14939;43.596;1.320;2024-03-25T03:24:21;11.95;;;5.75;;
27505;SDS011;14939;43.596;1.320;2024-03-25T03:26:47;15.20;;;5.78;;
27505;SDS011;14939;43.596;1.320;2024-03-25T03:29:13;11.93;;;6.32;;
27505;SDS011;14939;43.596;1.320;2024-03-25T03:31:39;12.98;;;6.70;;
27505;SDS011;14939;43.596;1.320;2024-03-25T03:34:04;14.93;;;7.13;;
27505;SDS011;14939;43.596;1.320;2024-03-25T03:36:30;13.77;;;6.10;;
27505;SDS011;14939;43.596;1.320;2024-03-25T03:38:56;12.20;;;5.40;;
27505;SDS011;14939;43.596;1.320;2024-03-25T03:41:21;11.23;;;5.10;;
27505;SDS011;14939;43.596;1.320;2024-03-25T03:43:47;12.45;;;4.38;;
27505;SDS011;14939;43.596;1.320;2024-03-25T03:46:13;6.63;;;4.03;;
27505;SDS011;14939;43.596;1.320;2024-03-25T03:48:38;9.18;;;4.22;;
27505;SDS011;14939;43.596;1.320;2024-03-25T03:51:05;7.70;;;4.30;;
27505;SDS011;14939;43.596;1.320;2024-03-25T03:53:31;8.85;;;3.75;;
27505;SDS011;14939;43.596;1.320;2024-03-25T03:55:59;9.10;;;3.58;;
27505;SDS011;14939;43.596;1.320;2024-03-25T03:58:34;8.63;;;3.58;;
27505;SDS011;14939;43.596;1.320;2024-03-25T04:01:00;9.95;;;3.40;;
27505;SDS011;14939;43.596;1.320;2024-03-25T04:03:26;9.80;;;3.38;;
27505;SDS011;14939;43.596;1.320;2024-03-25T04:05:52;9.57;;;3.38;;
27505;SDS011;14939;43.596;1.320;2024-03-25T04:08:18;11.80;;;3.60;;
27505;SDS011;14939;43.596;1.320;2024-03-25T04:10:44;6.22;;;3.13;;
27505;SDS011;14939;43.596;1.320;2024-03-25T04:13:10;9.63;;;3.28;;
27505;SDS011;14939;43.596;1.320;2024-03-25T04:15:36;6.78;;;3.35;;
27505;SDS011;14939;43.596;1.320;2024-03-25T04:18:03;11.50;;;3.80;;
27505;SDS011;14939;43.596;1.320;2024-03-25T04:20:29;8.98;;;3.83;;
27505;SDS011;14939;43.596;1.320;2024-03-25T04:23:01;9.93;;;3.30;;
27505;SDS011;14939;43.596;1.320;2024-03-25T04:25:26;7.55;;;3.47;;
27505;SDS011;14939;43.596;1.320;2024-03-25T04:27:52;9.88;;;3.20;;
27505;SDS011;14939;43.596;1.320;2024-03-25T04:30:18;7.47;;;3.55;;
27505;SDS011;14939;43.596;1.320;2024-03-25T04:32:44;6.07;;;2.83;;
27505;SDS011;14939;43.596;1.320;2024-03-25T04:35:10;6.65;;;3.03;;
27505;SDS011;14939;43.596;1.320;2024-03-25T04:37:36;7.13;;;3.20;;
27505;SDS011;14939;43.596;1.320;2024-03-25T04:40:02;7.28;;;3.03;;
27505;SDS011;14939;43.596;1.320;2024-03-25T04:42:28;7.05;;;3.00;;
27505;SDS011;14939;43.596;1.320;2024-03-25T04:44:54;7.07;;;2.90;;
27505;SDS011;14939;43.596;1.320;2024-03-25T04:47:19;5.70;;;2.75;;
27505;SDS011;14939;43.596;1.320;2024-03-25T04:49:45;8.13;;;3.00;;
27505;SDS011;14939;43.596;1.320;2024-03-25T04:52:11;6.72;;;2.85;;
27505;SDS011;14939;43.596;1.320;2024-03-25T04:54:38;8.38;;;3.17;;
27505;SDS011;14939;43.596;1.320;2024-03-25T04:57:04;11.30;;;3.10;;
27505;SDS011;14939;43.596;1.320;2024-03-25T04:59:31;5.43;;;2.72;;
27505;SDS011;14939;43.596;1.320;2024-03-25T05:01:57;8.93;;;3.35;;
27505;SDS011;14939;43.596;1.320;2024-03-25T05:04:22;9.07;;;3.17;;
27505;SDS011;14939;43.596;1.320;2024-03-25T05:06:49;7.13;;;3.28;;
27505;SDS011;14939;43.596;1.320;2024-03-25T05:09:15;8.35;;;3.20;;
27505;SDS011;14939;43.596;1.320;2024-03-25T05:11:41;7.07;;;3.42;;
27505;SDS011;14939;43.596;1.320;2024-03-25T05:14:07;7.40;;;2.80;;
27505;SDS011;14939;43.596;1.320;2024-03-25T05:16:32;7.85;;;2.95;;
27505;SDS011;14939;43.596;1.320;2024-03-25T05:18:58;9.52;;;3.10;;
27505;SDS011;14939;43.596;1.320;2024-03-25T05:21:24;6.75;;;3.08;;
27505;SDS011;14939;43.596;1.320;2024-03-25T05:23:49;7.55;;;3.10;;
27505;SDS011;14939;43.596;1.320;2024-03-25T05:26:15;6.32;;;3.05;;
27505;SDS011;14939;43.596;1.320;2024-03-25T05:28:40;10.77;;;2.88;;
27505;SDS011;14939;43.596;1.320;2024-03-25T05:31:07;7.38;;;3.25;;
27505;SDS011;14939;43.596;1.320;2024-03-25T05:33:33;7.60;;;3.47;;
27505;SDS011;14939;43.596;1.320;2024-03-25T05:35:59;7.60;;;3.17;;
27505;SDS011;14939;43.596;1.320;2024-03-25T05:38:25;9.35;;;3.10;;
27505;SDS011;14939;43.596;1.320;2024-03-25T05:40:51;6.03;;;2.80;;
27505;SDS011;14939;43.596;1.320;2024-03-25T05:43:16;7.68;;;3.08;;
27505;SDS011;14939;43.596;1.320;2024-03-25T05:45:49;5.82;;;2.67;;
27505;SDS011;14939;43.596;1.320;2024-03-25T05:48:16;6.10;;;3.20;;
27505;SDS011;14939;43.596;1.320;2024-03-25T05:50:42;4.70;;;2.55;;
27505;SDS011;14939;43.596;1.320;2024-03-25T05:53:07;7.65;;;2.38;;
27505;SDS011;14939;43.596;1.320;2024-03-25T05:55:33;9.63;;;2.85;;
27505;SDS011;14939;43.596;1.320;2024-03-25T05:57:59;5.68;;;2.20;;
27505;SDS011;14939;43.596;1.320;2024-03-25T06:00:25;6.20;;;2.33;;
27505;SDS011;14939;43.596;1.320;2024-03-25T06:02:51;7.60;;;2.55;;
27505;SDS011;14939;43.596;1.320;2024-03-25T06:05:18;6.97;;;2.33;;
27505;SDS011;14939;43.596;1.320;2024-03-25T06:07:44;9.70;;;2.72;;
27505;SDS011;14939;43.596;1.320;2024-03-25T06:10:10;7.65;;;2.67;;
27505;SDS011;14939;43.596;1.320;2024-03-25T06:12:36;10.43;;;2.33;;
27505;SDS011;14939;43.596;1.320;2024-03-25T06:15:01;5.05;;;2.00;;
27505;SDS011;14939;43.596;1.320;2024-03-25T06:17:27;8.85;;;2.30;;
27505;SDS011;14939;43.596;1.320;2024-03-25T06:19:53;8.32;;;2.20;;
27505;SDS011;14939;43.596;1.320;2024-03-25T06:22:18;7.32;;;2.17;;
27505;SDS011;14939;43.596;1.320;2024-03-25T06:24:44;8.50;;;2.00;;
27505;SDS011;14939;43.596;1.320;2024-03-25T06:27:09;5.45;;;2.10;;
27505;SDS011;14939;43.596;1.320;2024-03-25T06:29:35;4.50;;;1.88;;
27505;SDS011;14939;43.596;1.320;2024-03-25T06:32:01;5.93;;;2.22;;
27505;SDS011;14939;43.596;1.320;2024-03-25T06:34:45;5.30;;;2.10;;
27505;SDS011;14939;43.596;1.320;2024-03-25T06:37:11;7.88;;;2.10;;
27505;SDS011;14939;43.596;1.320;2024-03-25T06:39:36;5.80;;;1.95;;
27505;SDS011;14939;43.596;1.320;2024-03-25T06:42:02;9.85;;;2.30;;
27505;SDS011;14939;43.596;1.320;2024-03-25T06:44:28;8.35;;;2.28;;
27505;SDS011;14939;43.596;1.320;2024-03-25T06:46:53;5.05;;;2.00;;
27505;SDS011;14939;43.596;1.320;2024-03-25T06:49:21;6.80;;;1.90;;
27505;SDS011;14939;43.596;1.320;2024-03-25T06:51:46;6.15;;;1.77;;
27505;SDS011;14939;43.596;1.320;2024-03-25T06:54:12;7.60;;;2.28;;
27505;SDS011;14939;43.596;1.320;2024-03-25T06:56:38;6.55;;;2.10;;
27505;SDS011;14939;43.596;1.320;2024-03-25T06:59:03;5.15;;;2.05;;
27505;SDS011;14939;43.596;1.320;2024-03-25T07:01:29;8.05;;;2.10;;
27505;SDS011;14939;43.596;1.320;2024-03-25T07:03:54;4.47;;;2.03;;
27505;SDS011;14939;43.596;1.320;2024-03-25T07:06:20;5.07;;;2.20;;
27505;SDS011;14939;43.596;1.320;2024-03-25T07:08:45;4.35;;;2.08;;
27505;SDS011;14939;43.596;1.320;2024-03-25T07:11:13;3.67;;;2.00;;
27505;SDS011;14939;43.596;1.320;2024-03-25T07:13:39;6.95;;;2.05;;
27505;SDS011;14939;43.596;1.320;2024-03-25T07:16:04;9.90;;;2.13;;
27505;SDS011;14939;43.596;1.320;2024-03-25T07:18:30;6.10;;;2.00;;
27505;SDS011;14939;43.596;1.320;2024-03-25T07:20:56;6.32;;;2.15;;
27505;SDS011;14939;43.596;1.320;2024-03-25T07:23:21;7.78;;;2.00;;
27505;SDS011;14939;43.596;1.320;2024-03-25T07:25:47;4.80;;;1.77;;
27505;SDS011;14939;43.596;1.320;2024-03-25T07:28:12;8.95;;;1.90;;
27505;SDS011;14939;43.596;1.320;2024-03-25T07:30:38;4.88;;;2.10;;
27505;SDS011;14939;43.596;1.320;2024-03-25T07:33:04;7.43;;;2.35;;
27505;SDS011;14939;43.596;1.320;2024-03-25T07:35:30;8.55;;;2.05;;
27505;SDS011;14939;43.596;1.320;2024-03-25T07:37:55;4.68;;;2.00;;
27505;SDS011;14939;43.596;1.320;2024-03-25T07:40:21;5.00;;;1.92;;
27505;SDS011;14939;43.596;1.320;2024-03-25T07:42:47;7.80;;;1.90;;
27505;SDS011;14939;43.596;1.320;2024-03-25T07:45:14;8.75;;;2.40;;
27505;SDS011;14939;43.596;1.320;2024-03-25T07:47:40;6.70;;;2.08;;
27505;SDS011;14939;43.596;1.320;2024-03-25T07:50:05;8.07;;;2.35;;
27505;SDS011;14939;43.596;1.320;2024-03-25T07:52:31;7.15;;;2.55;;
27505;SDS011;14939;43.596;1.320;2024-03-25T07:54:57;8.55;;;2.50;;
27505;SDS011;14939;43.596;1.320;2024-03-25T07:57:23;4.28;;;1.85;;
27505;SDS011;14939;43.596;1.320;2024-03-25T07:59:49;24.67;;;2.80;;
27505;SDS011;14939;43.596;1.320;2024-03-25T08:02:15;14.93;;;2.30;;
27505;SDS011;14939;43.596;1.320;2024-03-25T08:04:40;7.90;;;2.08;;
27505;SDS011;14939;43.596;1.320;2024-03-25T08:07:06;5.18;;;2.03;;
27505;SDS011;14939;43.596;1.320;2024-03-25T08:09:32;17.98;;;2.25;;
27505;SDS011;14939;43.596;1.320;2024-03-25T08:11:58;6.95;;;1.80;;
27505;SDS011;14939;43.596;1.320;2024-03-25T08:14:24;8.45;;;1.85;;
27505;SDS011;14939;43.596;1.320;2024-03-25T08:16:49;6.75;;;1.95;;
27505;SDS011;14939;43.596;1.320;2024-03-25T08:19:15;5.40;;;2.00;;
27505;SDS011;14939;43.596;1.320;2024-03-25T08:21:41;8.05;;;1.83;;
27505;SDS011;14939;43.596;1.320;2024-03-25T08:24:07;8.00;;;1.45;;
27505;SDS011;14939;43.596;1.320;2024-03-25T08:26:32;7.30;;;1.80;;
27505;SDS011;14939;43.596;1.320;2024-03-25T08:28:58;8.82;;;1.40;;
27505;SDS011;14939;43.596;1.320;2024-03-25T08:31:24;8.02;;;1.40;;
27505;SDS011;14939;43.596;1.320;2024-03-25T08:33:50;3.08;;;1.20;;
27505;SDS011;14939;43.596;1.320;2024-03-25T08:36:16;7.75;;;1.17;;
27505;SDS011;14939;43.596;1.320;2024-03-25T08:38:43;9.73;;;1.50;;
27505;SDS011;14939;43.596;1.320;2024-03-25T08:41:09;7.43;;;1.38;;
27505;SDS011;14939;43.596;1.320;2024-03-25T08:43:35;6.22;;;1.23;;
27505;SDS011;14939;43.596;1.320;2024-03-25T08:46:00;3.75;;;1.17;;
27505;SDS011;14939;43.596;1.320;2024-03-25T08:48:26;6.93;;;1.52;;
27505;SDS011;14939;43.596;1.320;2024-03-25T08:50:52;5.65;;;1.45;;
27505;SDS011;14939;43.596;1.320;2024-03-25T08:53:17;7.25;;;1.20;;
27505;SDS011;14939;43.596;1.320;2024-03-25T08:55:46;3.80;;;1.20;;
27505;SDS011;14939;43.596;1.320;2024-03-25T08:58:12;8.75;;;1.30;;
27505;SDS011;14939;43.596;1.320;2024-03-25T09:00:39;8.20;;;1.42;;
27505;SDS011;14939;43.596;1.320;2024-03-25T09:03:04;8.48;;;1.70;;
27505;SDS011;14939;43.596;1.320;2024-03-25T09:05:30;9.57;;;1.40;;
27505;SDS011;14939;43.596;1.320;2024-03-25T09:07:55;8.00;;;1.23;;
27505;SDS011;14939;43.596;1.320;2024-03-25T09:10:23;5.57;;;1.33;;
27505;SDS011;14939;43.596;1.320;2024-03-25T09:13:08;3.50;;;1.10;;
27505;SDS011;14939;43.596;1.320;2024-03-25T09:15:33;9.68;;;1.50;;
27505;SDS011;14939;43.596;1.320;2024-03-25T09:17:59;15.85;;;2.05;;
27505;SDS011;14939;43.596;1.320;2024-03-25T09:20:26;7.32;;;1.25;;
27505;SDS011;14939;43.596;1.320;2024-03-25T09:22:52;5.32;;;0.98;;
27505;SDS011;14939;43.596;1.320;2024-03-25T09:25:18;5.10;;;1.10;;
27505;SDS011;14939;43.596;1.320;2024-03-25T09:27:47;6.28;;;1.17;;
27505;SDS011;14939;43.596;1.320;2024-03-25T09:30:16;6.78;;;1.17;;
27505;SDS011;14939;43.596;1.320;2024-03-25T09:32:44;8.13;;;1.63;;
27505;SDS011;14939;43.596;1.320;2024-03-25T09:35:10;3.42;;;1.10;;
27505;SDS011;14939;43.596;1.320;2024-03-25T09:37:36;4.88;;;1.50;;
27505;SDS011;14939;43.596;1.320;2024-03-25T09:40:02;4.50;;;1.30;;
27505;SDS011;14939;43.596;1.320;2024-03-25T09:42:44;4.50;;;1.30;;
27505;SDS011;14939;43.596;1.320;2024-03-25T09:45:13;6.90;;;1.48;;
27505;SDS011;14939;43.596;1.320;2024-03-25T09:47:43;7.50;;;1.40;;
27505;SDS011;14939;43.596;1.320;2024-03-25T09:50:12;7.10;;;1.25;;
27505;SDS011;14939;43.596;1.320;2024-03-25T09:52:39;6.28;;;1.27;;
27505;SDS011;14939;43.596;1.320;2024-03-25T09:55:05;10.70;;;1.23;;
27505;SDS011;14939;43.596;1.320;2024-03-25T09:57:31;7.15;;;1.42;;
27505;SDS011;14939;43.596;1.320;2024-03-25T09:59:58;6.93;;;2.03;;
27505;SDS011;14939;43.596;1.320;2024-03-25T10:02:24;5.07;;;1.20;;
27505;SDS011;14939;43.596;1.320;2024-03-25T10:04:51;6.28;;;1.27;;
27505;SDS011;14939;43.596;1.320;2024-03-25T10:07:24;4.72;;;1.58;;
27505;SDS011;14939;43.596;1.320;2024-03-25T10:09:50;4.53;;;1.70;;
27505;SDS011;14939;43.596;1.320;2024-03-25T10:12:16;7.35;;;1.70;;
27505;SDS011;14939;43.596;1.320;2024-03-25T10:14:42;15.30;;;1.50;;
27505;SDS011;14939;43.596;1.320;2024-03-25T10:17:08;7.55;;;1.42;;
27505;SDS011;14939;43.596;1.320;2024-03-25T10:19:34;4.97;;;1.30;;
27505;SDS011;14939;43.596;1.320;2024-03-25T10:22:03;7.55;;;1.20;;
27505;SDS011;14939;43.596;1.320;2024-03-25T10:24:51;6.30;;;1.17;;
27505;SDS011;14939;43.596;1.320;2024-03-25T10:27:20;8.25;;;1.13;;
27505;SDS011;14939;43.596;1.320;2024-03-25T10:29:47;5.40;;;1.20;;
27505;SDS011;14939;43.596;1.320;2024-03-25T10:32:13;4.20;;;1.13;;
27505;SDS011;14939;43.596;1.320;2024-03-25T10:34:40;5.25;;;1.20;;
27505;SDS011;14939;43.596;1.320;2024-03-25T10:37:06;6.10;;;1.15;;
27505;SDS011;14939;43.596;1.320;2024-03-25T10:39:34;4.68;;;1.10;;
27505;SDS011;14939;43.596;1.320;2024-03-25T10:42:08;5.90;;;1.25;;
27505;SDS011;14939;43.596;1.320;2024-03-25T10:44:38;5.55;;;1.30;;
27505;SDS011;14939;43.596;1.320;2024-03-25T10:47:04;4.63;;;1.23;;
27505;SDS011;14939;43.596;1.320;2024-03-25T10:52:03;6.70;;;1.23;;
27505;SDS011;14939;43.596;1.320;2024-03-25T10:54:31;7.43;;;1.17;;
27505;SDS011;14939;43.596;1.320;2024-03-25T10:56:58;7.47;;;1.23;;
27505;SDS011;14939;43.596;1.320;2024-03-25T10:59:25;8.63;;;1.27;;
27505;SDS011;14939;43.596;1.320;2024-03-25T11:01:52;5.22;;;1.30;;
27505;SDS011;14939;43.596;1.320;2024-03-25T11:04:18;4.65;;;1.20;;
27505;SDS011;14939;43.596;1.320;2024-03-25T11:06:45;7.07;;;1.52;;
27505;SDS011;14939;43.596;1.320;2024-03-25T11:09:21;6.57;;;1.63;;
27505;SDS011;14939;43.596;1.320;2024-03-25T11:11:51;4.43;;;1.02;;
27505;SDS011;14939;43.596;1.320;2024-03-25T11:14:18;4.15;;;1.48;;
27505;SDS011;14939;43.596;1.320;2024-03-25T11:16:50;7.00;;;1.10;;
27505;SDS011;14939;43.596;1.320;2024-03-25T11:19:17;4.20;;;1.17;;
27505;SDS011;14939;43.596;1.320;2024-03-25T11:21:43;7.18;;;1.55;;
27505;SDS011;14939;43.596;1.320;2024-03-25T11:24:09;6.70;;;1.30;;
27505;SDS011;14939;43.596;1.320;2024-03-25T11:26:39;7.75;;;1.38;;
27505;SDS011;14939;43.596;1.320;2024-03-25T11:29:08;5.65;;;1.50;;
27505;SDS011;14939;43.596;1.320;2024-03-25T11:31:34;5.13;;;1.10;;
27505;SDS011;14939;43.596;1.320;2024-03-25T11:34:04;2.67;;;1.27;;
27505;SDS011;14939;43.596;1.320;2024-03-25T11:36:30;5.15;;;1.30;;
27505;SDS011;14939;43.596;1.320;2024-03-25T11:39:02;3.60;;;1.10;;
27505;SDS011;14939;43.596;1.320;2024-03-25T11:41:29;6.07;;;1.25;;
27505;SDS011;14939;43.596;1.320;2024-03-25T11:43:56;3.67;;;1.17;;
27505;SDS011;14939;43.596;1.320;2024-03-25T11:46:25;6.72;;;1.30;;
27505;SDS011;14939;43.596;1.320;2024-03-25T11:48:52;5.50;;;1.30;;
27505;SDS011;14939;43.596;1.320;2024-03-25T11:51:18;10.63;;;2.00;;
27505;SDS011;14939;43.596;1.320;2024-03-25T11:53:44;9.60;;;1.50;;
27505;SDS011;14939;43.596;1.320;2024-03-25T11:56:13;4.72;;;1.38;;
27505;SDS011;14939;43.596;1.320;2024-03-25T11:58:39;5.85;;;1.27;;
27505;SDS011;14939;43.596;1.320;2024-03-25T12:01:05;7.18;;;1.60;;
27505;SDS011;14939;43.596;1.320;2024-03-25T12:03:31;8.02;;;1.50;;
27505;SDS011;14939;43.596;1.320;2024-03-25T12:05:58;6.43;;;1.42;;
27505;SDS011;14939;43.596;1.320;2024-03-25T12:08:24;6.07;;;1.40;;
27505;SDS011;14939;43.596;1.320;2024-03-25T12:10:51;8.20;;;1.50;;
27505;SDS011;14939;43.596;1.320;2024-03-25T12:13:39;6.35;;;1.50;;
27505;SDS011;14939;43.596;1.320;2024-03-25T12:16:07;8.40;;;1.55;;
27505;SDS011;14939;43.596;1.320;2024-03-25T12:18:33;9.27;;;2.05;;
27505;SDS011;14939;43.596;1.320;2024-03-25T12:21:00;6.88;;;1.55;;
27505;SDS011;14939;43.596;1.320;2024-03-25T12:23:31;8.52;;;1.42;;
27505;SDS011;14939;43.596;1.320;2024-03-25T12:25:58;5.53;;;1.50;;
27505;SDS011;14939;43.596;1.320;2024-03-25T12:28:25;7.25;;;1.50;;
27505;SDS011;14939;43.596;1.320;2024-03-25T12:30:54;5.70;;;1.52;;
27505;SDS011;14939;43.596;1.320;2024-03-25T12:33:21;6.97;;;1.40;;
27505;SDS011;14939;43.596;1.320;2024-03-25T12:35:51;10.38;;;1.50;;
27505;SDS011;14939;43.596;1.320;2024-03-25T12:38:24;7.68;;;1.80;;
27505;SDS011;14939;43.596;1.320;2024-03-25T12:40:53;6.97;;;1.90;;
27505;SDS011;14939;43.596;1.320;2024-03-25T12:43:28;11.63;;;2.15;;
27505;SDS011;14939;43.596;1.320;2024-03-25T12:45:57;7.80;;;1.50;;
27505;SDS011;14939;43.596;1.320;2024-03-25T12:48:23;5.40;;;1.48;;
27505;SDS011;14939;43.596;1.320;2024-03-25T12:50:49;7.00;;;1.42;;
27505;SDS011;14939;43.596;1.320;2024-03-25T12:53:16;7.70;;;1.30;;
27505;SDS011;14939;43.596;1.320;2024-03-25T12:55:43;8.35;;;1.70;;
27505;SDS011;14939;43.596;1.320;2024-03-25T12:58:09;7.32;;;1.80;;
27505;SDS011;14939;43.596;1.320;2024-03-25T13:00:34;8.02;;;1.58;;
27505;SDS011;14939;43.596;1.320;2024-03-25T13:03:00;10.70;;;1.70;;
27505;SDS011;14939;43.596;1.320;2024-03-25T13:05:27;5.32;;;1.80;;
27505;SDS011;14939;43.596;1.320;2024-03-25T13:07:53;8.85;;;1.50;;
27505;SDS011;14939;43.596;1.320;2024-03-25T13:10:19;6.95;;;1.60;;
27505;SDS011;14939;43.596;1.320;2024-03-25T13:12:45;5.75;;;1.48;;
27505;SDS011;14939;43.596;1.320;2024-03-25T13:15:11;9.63;;;2.20;;
27505;SDS011;14939;43.596;1.320;2024-03-25T13:17:37;7.43;;;1.20;;
27505;SDS011;14939;43.596;1.320;2024-03-25T13:20:02;8.02;;;1.55;;
27505;SDS011;14939;43.596;1.320;2024-03-25T13:22:29;6.15;;;1.42;;
27505;SDS011;14939;43.596;1.320;2024-03-25T13:24:56;10.00;;;1.45;;
27505;SDS011;14939;43.596;1.320;2024-03-25T13:27:22;8.55;;;1.60;;
27505;SDS011;14939;43.596;1.320;2024-03-25T13:29:48;9.38;;;1.55;;
27505;SDS011;14939;43.596;1.320;2024-03-25T13:32:13;7.97;;;1.70;;
27505;SDS011;14939;43.596;1.320;2024-03-25T13:34:39;10.48;;;1.58;;
27505;SDS011;14939;43.596;1.320;2024-03-25T13:37:05;11.85;;;1.88;;
27505;SDS011;14939;43.596;1.320;2024-03-25T13:39:31;9.30;;;1.30;;
27505;SDS011;14939;43.596;1.320;2024-03-25T13:41:56;9.15;;;1.80;;
27505;SDS011;14939;43.596;1.320;2024-03-25T13:44:23;12.40;;;2.00;;
27505;SDS011;14939;43.596;1.320;2024-03-25T13:46:49;8.90;;;1.48;;
27505;SDS011;14939;43.596;1.320;2024-03-25T13:49:15;13.55;;;1.70;;
27505;SDS011;14939;43.596;1.320;2024-03-25T13:51:43;8.82;;;1.50;;
27505;SDS011;14939;43.596;1.320;2024-03-25T13:54:09;10.25;;;1.55;;
27505;SDS011;14939;43.596;1.320;2024-03-25T13:56:34;8.95;;;1.92;;
27505;SDS011;14939;43.596;1.320;2024-03-25T13:59:00;5.70;;;1.67;;
27505;SDS011;14939;43.596;1.320;2024-03-25T14:01:25;13.15;;;1.58;;
27505;SDS011;14939;43.596;1.320;2024-03-25T14:03:51;5.25;;;1.00;;
27505;SDS011;14939;43.596;1.320;2024-03-25T14:06:17;8.18;;;1.27;;
27505;SDS011;14939;43.596;1.320;2024-03-25T14:08:43;6.18;;;1.35;;
27505;SDS011;14939;43.596;1.320;2024-03-25T14:11:08;10.63;;;1.90;;
27505;SDS011;14939;43.596;1.320;2024-03-25T14:13:34;10.25;;;2.00;;
27505;SDS011;14939;43.596;1.320;2024-03-25T14:16:01;7.85;;;1.60;;
27505;SDS011;14939;43.596;1.320;2024-03-25T14:18:26;7.60;;;1.40;;
27505;SDS011;14939;43.596;1.320;2024-03-25T14:20:52;9.45;;;1.50;;
27505;SDS011;14939;43.596;1.320;2024-03-25T14:23:18;6.35;;;1.30;;
27505;SDS011;14939;43.596;1.320;2024-03-25T14:25:44;8.05;;;1.80;;
27505;SDS011;14939;43.596;1.320;2024-03-25T14:28:09;11.65;;;1.98;;
27505;SDS011;14939;43.596;1.320;2024-03-25T14:30:35;6.28;;;1.50;;
27505;SDS011;14939;43.596;1.320;2024-03-25T14:33:01;8.63;;;1.60;;
27505;SDS011;14939;43.596;1.320;2024-03-25T14:35:27;5.05;;;1.35;;
27505;SDS011;14939;43.596;1.320;2024-03-25T14:37:52;8.77;;;1.50;;
27505;SDS011;14939;43.596;1.320;2024-03-25T14:40:19;6.03;;;1.45;;
27505;SDS011;14939;43.596;1.320;2024-03-25T14:42:44;7.95;;;1.70;;